sensor_id;sensor_type;location;lat;lon;timestamp;P1;durP1;ratioP1;P2;durP2;ratioP2
56073;SDS011;41950;55.840;37.442;2022-08-21T00:01:07;32.95;;;29.45;;
56073;SDS011;41950;55.840;37.442;2022-08-21T00:03:36;31.23;;;27.95;;
56073;SDS011;41950;55.840;37.442;2022-08-21T00:06:02;33.83;;;30.42;;
56073;SDS011;41950;55.840;37.442;2022-08-21T00:08:28;31.85;;;28.48;;
56073;SDS011;41950;55.840;37.442;2022-08-21T00:10:54;33.08;;;29.33;;
56073;SDS011;41950;55.840;37.442;2022-08-21T00:13:19;33.38;;;30.10;;
56073;SDS011;41950;55.840;37.442;2022-08-21T00:15:46;34.75;;;31.05;;
56073;SDS011;41950;55.840;37.442;2022-08-21T00:18:12;34.50;;;30.88;;
56073;SDS011;41950;55.840;37.442;2022-08-21T00:20:40;33.40;;;29.95;;
56073;SDS011;41950;55.840;37.442;2022-08-21T00:23:07;33.33;;;29.42;;
56073;SDS011;41950;55.840;37.442;2022-08-21T00:25:33;33.45;;;29.98;;
56073;SDS011;41950;55.840;37.442;2022-08-21T00:27:59;33.88;;;30.27;;
56073;SDS011;41950;55.840;37.442;2022-08-21T00:30:27;35.33;;;31.58;;
56073;SDS011;41950;55.840;37.442;2022-08-21T00:32:54;32.90;;;29.45;;
56073;SDS011;41950;55.840;37.442;2022-08-21T00:35:22;35.05;;;31.40;;
56073;SDS011;41950;55.840;37.442;2022-08-21T00:37:50;33.30;;;29.80;;
56073;SDS011;41950;55.840;37.442;2022-08-21T00:40:17;37.40;;;31.02;;
56073;SDS011;41950;55.840;37.442;2022-08-21T00:42:47;34.75;;;31.05;;
56073;SDS011;41950;55.840;37.442;2022-08-21T00:45:13;35.03;;;31.48;;
56073;SDS011;41950;55.840;37.442;2022-08-21T00:47:39;33.15;;;29.65;;
56073;SDS011;41950;55.840;37.442;2022-08-21T00:50:05;35.67;;;32.08;;
56073;SDS011;41950;55.840;37.442;2022-08-21T00:52:34;35.10;;;31.38;;
56073;SDS011;41950;55.840;37.442;2022-08-21T00:55:02;32.90;;;29.50;;
56073;SDS011;41950;55.840;37.442;2022-08-21T00:57:34;35.72;;;31.23;;
56073;SDS011;41950;55.840;37.442;2022-08-21T01:00:05;35.28;;;31.70;;
56073;SDS011;41950;55.840;37.442;2022-08-21T01:02:35;34.95;;;30.20;;
56073;SDS011;41950;55.840;37.442;2022-08-21T01:05:00;34.97;;;31.42;;
56073;SDS011;41950;55.840;37.442;2022-08-21T01:07:26;34.60;;;30.98;;
56073;SDS011;41950;55.840;37.442;2022-08-21T01:09:52;34.10;;;30.45;;
56073;SDS011;41950;55.840;37.442;2022-08-21T01:12:17;33.50;;;28.80;;
56073;SDS011;41950;55.840;37.442;2022-08-21T01:14:44;34.50;;;29.30;;
56073;SDS011;41950;55.840;37.442;2022-08-21T01:17:11;34.38;;;30.70;;
56073;SDS011;41950;55.840;37.442;2022-08-21T01:19:40;34.70;;;28.67;;
56073;SDS011;41950;55.840;37.442;2022-08-21T01:22:06;32.05;;;28.42;;
56073;SDS011;41950;55.840;37.442;2022-08-21T01:24:32;32.85;;;29.15;;
56073;SDS011;41950;55.840;37.442;2022-08-21T01:26:59;33.13;;;29.10;;
56073;SDS011;41950;55.840;37.442;2022-08-21T01:31:57;32.38;;;28.98;;
56073;SDS011;41950;55.840;37.442;2022-08-21T01:34:33;30.08;;;26.85;;
56073;SDS011;41950;55.840;37.442;2022-08-21T01:37:01;32.88;;;29.40;;
56073;SDS011;41950;55.840;37.442;2022-08-21T01:39:28;34.00;;;29.90;;
56073;SDS011;41950;55.840;37.442;2022-08-21T01:41:53;31.00;;;27.67;;
56073;SDS011;41950;55.840;37.442;2022-08-21T01:44:20;31.10;;;27.08;;
56073;SDS011;41950;55.840;37.442;2022-08-21T01:46:47;32.83;;;29.00;;
56073;SDS011;41950;55.840;37.442;2022-08-21T01:49:13;32.08;;;27.88;;
56073;SDS011;41950;55.840;37.442;2022-08-21T01:51:40;32.20;;;27.73;;
56073;SDS011;41950;55.840;37.442;2022-08-21T01:54:05;33.05;;;28.02;;
56073;SDS011;41950;55.840;37.442;2022-08-21T01:56:35;32.25;;;28.80;;
56073;SDS011;41950;55.840;37.442;2022-08-21T01:59:08;32.58;;;27.48;;
56073;SDS011;41950;55.840;37.442;2022-08-21T02:01:35;32.75;;;27.98;;
56073;SDS011;41950;55.840;37.442;2022-08-21T02:04:00;30.90;;;27.70;;
56073;SDS011;41950;55.840;37.442;2022-08-21T02:06:26;32.00;;;26.13;;
56073;SDS011;41950;55.840;37.442;2022-08-21T02:08:52;31.83;;;26.65;;
56073;SDS011;41950;55.840;37.442;2022-08-21T02:11:18;30.92;;;26.25;;
56073;SDS011;41950;55.840;37.442;2022-08-21T02:13:44;31.20;;;27.92;;
56073;SDS011;41950;55.840;37.442;2022-08-21T02:16:10;29.67;;;26.48;;
56073;SDS011;41950;55.840;37.442;2022-08-21T02:18:36;29.30;;;26.15;;
56073;SDS011;41950;55.840;37.442;2022-08-21T02:21:03;28.63;;;25.65;;
56073;SDS011;41950;55.840;37.442;2022-08-21T02:23:29;28.33;;;25.30;;
56073;SDS011;41950;55.840;37.442;2022-08-21T02:25:56;29.52;;;26.50;;
56073;SDS011;41950;55.840;37.442;2022-08-21T02:28:26;28.02;;;24.98;;
56073;SDS011;41950;55.840;37.442;2022-08-21T02:30:52;27.85;;;24.95;;
56073;SDS011;41950;55.840;37.442;2022-08-21T02:33:19;28.80;;;24.85;;
56073;SDS011;41950;55.840;37.442;2022-08-21T02:35:45;28.40;;;25.42;;
56073;SDS011;41950;55.840;37.442;2022-08-21T02:38:13;29.65;;;26.23;;
56073;SDS011;41950;55.840;37.442;2022-08-21T02:40:42;28.10;;;24.85;;
56073;SDS011;41950;55.840;37.442;2022-08-21T02:43:10;29.63;;;25.95;;
56073;SDS011;41950;55.840;37.442;2022-08-21T02:45:36;27.48;;;24.45;;
56073;SDS011;41950;55.840;37.442;2022-08-21T02:48:05;27.85;;;24.73;;
56073;SDS011;41950;55.840;37.442;2022-08-21T02:50:41;28.27;;;25.13;;
56073;SDS011;41950;55.840;37.442;2022-08-21T02:53:10;27.42;;;23.02;;
56073;SDS011;41950;55.840;37.442;2022-08-21T02:55:38;28.58;;;24.65;;
56073;SDS011;41950;55.840;37.442;2022-08-21T02:58:04;26.42;;;23.15;;
56073;SDS011;41950;55.840;37.442;2022-08-21T03:00:33;26.73;;;23.45;;
56073;SDS011;41950;55.840;37.442;2022-08-21T03:03:00;27.92;;;24.00;;
56073;SDS011;41950;55.840;37.442;2022-08-21T03:05:26;27.55;;;23.63;;
56073;SDS011;41950;55.840;37.442;2022-08-21T03:07:54;28.10;;;25.10;;
56073;SDS011;41950;55.840;37.442;2022-08-21T03:10:21;27.85;;;24.70;;
56073;SDS011;41950;55.840;37.442;2022-08-21T03:12:48;26.67;;;23.70;;
56073;SDS011;41950;55.840;37.442;2022-08-21T03:15:15;26.83;;;23.98;;
56073;SDS011;41950;55.840;37.442;2022-08-21T03:17:42;26.33;;;22.83;;
56073;SDS011;41950;55.840;37.442;2022-08-21T03:20:09;26.00;;;23.30;;
56073;SDS011;41950;55.840;37.442;2022-08-21T03:22:35;28.20;;;23.38;;
56073;SDS011;41950;55.840;37.442;2022-08-21T03:25:02;29.55;;;24.02;;
56073;SDS011;41950;55.840;37.442;2022-08-21T03:27:29;31.45;;;25.48;;
56073;SDS011;41950;55.840;37.442;2022-08-21T03:29:56;27.10;;;24.20;;
56073;SDS011;41950;55.840;37.442;2022-08-21T03:32:22;27.50;;;24.50;;
56073;SDS011;41950;55.840;37.442;2022-08-21T03:34:48;28.30;;;25.10;;
56073;SDS011;41950;55.840;37.442;2022-08-21T03:37:14;25.45;;;22.65;;
56073;SDS011;41950;55.840;37.442;2022-08-21T03:39:40;26.30;;;23.65;;
56073;SDS011;41950;55.840;37.442;2022-08-21T03:42:07;27.00;;;23.63;;
56073;SDS011;41950;55.840;37.442;2022-08-21T03:44:33;27.60;;;24.70;;
56073;SDS011;41950;55.840;37.442;2022-08-21T03:46:59;28.10;;;25.08;;
56073;SDS011;41950;55.840;37.442;2022-08-21T03:49:25;27.48;;;24.60;;
56073;SDS011;41950;55.840;37.442;2022-08-21T03:51:51;27.13;;;24.17;;
56073;SDS011;41950;55.840;37.442;2022-08-21T03:54:17;27.85;;;24.95;;
56073;SDS011;41950;55.840;37.442;2022-08-21T03:56:42;28.08;;;24.95;;
56073;SDS011;41950;55.840;37.442;2022-08-21T03:59:08;27.15;;;24.25;;
56073;SDS011;41950;55.840;37.442;2022-08-21T04:01:35;27.15;;;23.23;;
56073;SDS011;41950;55.840;37.442;2022-08-21T04:04:01;27.05;;;24.15;;
56073;SDS011;41950;55.840;37.442;2022-08-21T04:06:28;27.77;;;24.80;;
56073;SDS011;41950;55.840;37.442;2022-08-21T04:08:53;29.10;;;24.55;;
56073;SDS011;41950;55.840;37.442;2022-08-21T04:11:20;27.30;;;24.25;;
56073;SDS011;41950;55.840;37.442;2022-08-21T04:13:46;27.27;;;24.45;;
56073;SDS011;41950;55.840;37.442;2022-08-21T04:16:12;26.10;;;23.30;;
56073;SDS011;41950;55.840;37.442;2022-08-21T04:18:39;29.00;;;25.42;;
56073;SDS011;41950;55.840;37.442;2022-08-21T04:21:04;26.95;;;24.10;;
56073;SDS011;41950;55.840;37.442;2022-08-21T04:23:31;27.52;;;24.63;;
56073;SDS011;41950;55.840;37.442;2022-08-21T04:25:57;27.30;;;24.40;;
56073;SDS011;41950;55.840;37.442;2022-08-21T04:28:23;26.15;;;23.35;;
56073;SDS011;41950;55.840;37.442;2022-08-21T04:30:52;29.75;;;25.05;;
56073;SDS011;41950;55.840;37.442;2022-08-21T04:33:19;26.60;;;23.75;;
56073;SDS011;41950;55.840;37.442;2022-08-21T04:35:45;27.48;;;24.42;;
56073;SDS011;41950;55.840;37.442;2022-08-21T04:38:11;28.65;;;25.70;;
56073;SDS011;41950;55.840;37.442;2022-08-21T04:40:36;29.80;;;26.65;;
56073;SDS011;41950;55.840;37.442;2022-08-21T04:43:04;27.67;;;24.95;;
56073;SDS011;41950;55.840;37.442;2022-08-21T04:45:32;31.73;;;26.88;;
56073;SDS011;41950;55.840;37.442;2022-08-21T04:48:07;30.52;;;25.73;;
56073;SDS011;41950;55.840;37.442;2022-08-21T04:50:38;29.88;;;26.70;;
56073;SDS011;41950;55.840;37.442;2022-08-21T04:53:09;29.40;;;26.35;;
56073;SDS011;41950;55.840;37.442;2022-08-21T04:55:39;28.00;;;25.20;;
56073;SDS011;41950;55.840;37.442;2022-08-21T04:58:07;30.65;;;27.55;;
56073;SDS011;41950;55.840;37.442;2022-08-21T05:00:36;29.10;;;26.20;;
56073;SDS011;41950;55.840;37.442;2022-08-21T05:03:03;30.67;;;27.38;;
56073;SDS011;41950;55.840;37.442;2022-08-21T05:05:31;31.38;;;27.90;;
56073;SDS011;41950;55.840;37.442;2022-08-21T05:07:58;32.53;;;29.23;;
56073;SDS011;41950;55.840;37.442;2022-08-21T05:10:26;32.22;;;28.83;;
56073;SDS011;41950;55.840;37.442;2022-08-21T05:12:52;30.23;;;27.13;;
56073;SDS011;41950;55.840;37.442;2022-08-21T05:15:19;32.67;;;28.23;;
56073;SDS011;41950;55.840;37.442;2022-08-21T05:17:45;32.28;;;28.83;;
56073;SDS011;41950;55.840;37.442;2022-08-21T05:20:12;31.95;;;28.58;;
56073;SDS011;41950;55.840;37.442;2022-08-21T05:22:38;32.80;;;29.40;;
56073;SDS011;41950;55.840;37.442;2022-08-21T05:25:04;34.63;;;29.25;;
56073;SDS011;41950;55.840;37.442;2022-08-21T05:27:31;32.55;;;29.17;;
56073;SDS011;41950;55.840;37.442;2022-08-21T05:29:57;32.05;;;28.60;;
56073;SDS011;41950;55.840;37.442;2022-08-21T05:32:23;32.45;;;28.98;;
56073;SDS011;41950;55.840;37.442;2022-08-21T05:34:49;34.10;;;30.65;;
56073;SDS011;41950;55.840;37.442;2022-08-21T05:37:14;33.67;;;30.10;;
56073;SDS011;41950;55.840;37.442;2022-08-21T05:39:40;34.92;;;31.20;;
56073;SDS011;41950;55.840;37.442;2022-08-21T05:42:06;34.13;;;30.52;;
56073;SDS011;41950;55.840;37.442;2022-08-21T05:44:33;34.70;;;31.23;;
56073;SDS011;41950;55.840;37.442;2022-08-21T05:47:05;35.00;;;31.50;;
56073;SDS011;41950;55.840;37.442;2022-08-21T05:49:32;33.15;;;29.92;;
56073;SDS011;41950;55.840;37.442;2022-08-21T05:51:58;36.10;;;30.35;;
56073;SDS011;41950;55.840;37.442;2022-08-21T05:54:24;33.47;;;29.88;;
56073;SDS011;41950;55.840;37.442;2022-08-21T05:56:50;34.55;;;31.15;;
56073;SDS011;41950;55.840;37.442;2022-08-21T05:59:17;33.50;;;29.90;;
56073;SDS011;41950;55.840;37.442;2022-08-21T06:01:43;34.75;;;30.88;;
56073;SDS011;41950;55.840;37.442;2022-08-21T06:04:10;33.95;;;30.48;;
56073;SDS011;41950;55.840;37.442;2022-08-21T06:06:37;32.65;;;29.27;;
56073;SDS011;41950;55.840;37.442;2022-08-21T06:09:03;35.03;;;31.25;;
56073;SDS011;41950;55.840;37.442;2022-08-21T06:11:30;32.17;;;28.85;;
56073;SDS011;41950;55.840;37.442;2022-08-21T06:13:56;33.97;;;30.42;;
56073;SDS011;41950;55.840;37.442;2022-08-21T06:16:22;33.85;;;30.17;;
56073;SDS011;41950;55.840;37.442;2022-08-21T06:18:50;33.65;;;30.25;;
56073;SDS011;41950;55.840;37.442;2022-08-21T06:21:16;31.98;;;28.52;;
56073;SDS011;41950;55.840;37.442;2022-08-21T06:23:42;32.63;;;29.13;;
56073;SDS011;41950;55.840;37.442;2022-08-21T06:26:09;32.28;;;28.98;;
56073;SDS011;41950;55.840;37.442;2022-08-21T06:28:36;34.17;;;30.23;;
56073;SDS011;41950;55.840;37.442;2022-08-21T06:31:09;33.83;;;29.90;;
56073;SDS011;41950;55.840;37.442;2022-08-21T06:33:37;32.05;;;28.65;;
56073;SDS011;41950;55.840;37.442;2022-08-21T06:36:02;31.75;;;28.35;;
56073;SDS011;41950;55.840;37.442;2022-08-21T06:38:53;32.72;;;29.35;;
56073;SDS011;41950;55.840;37.442;2022-08-21T06:41:22;31.65;;;27.98;;
56073;SDS011;41950;55.840;37.442;2022-08-21T06:44:05;33.13;;;29.73;;
56073;SDS011;41950;55.840;37.442;2022-08-21T06:46:31;31.65;;;27.35;;
56073;SDS011;41950;55.840;37.442;2022-08-21T06:48:57;32.17;;;28.75;;
56073;SDS011;41950;55.840;37.442;2022-08-21T06:51:24;31.23;;;28.00;;
56073;SDS011;41950;55.840;37.442;2022-08-21T06:53:52;32.25;;;29.02;;
56073;SDS011;41950;55.840;37.442;2022-08-21T06:56:19;31.42;;;26.70;;
56073;SDS011;41950;55.840;37.442;2022-08-21T06:58:45;31.95;;;28.45;;
56073;SDS011;41950;55.840;37.442;2022-08-21T07:01:11;32.40;;;29.10;;
56073;SDS011;41950;55.840;37.442;2022-08-21T07:03:40;30.42;;;27.10;;
56073;SDS011;41950;55.840;37.442;2022-08-21T07:06:10;29.48;;;26.33;;
56073;SDS011;41950;55.840;37.442;2022-08-21T07:08:38;28.10;;;25.13;;
56073;SDS011;41950;55.840;37.442;2022-08-21T07:11:09;30.20;;;26.15;;
56073;SDS011;41950;55.840;37.442;2022-08-21T07:13:38;29.02;;;26.00;;
56073;SDS011;41950;55.840;37.442;2022-08-21T07:16:04;28.02;;;25.17;;
56073;SDS011;41950;55.840;37.442;2022-08-21T07:18:32;28.95;;;25.48;;
56073;SDS011;41950;55.840;37.442;2022-08-21T07:20:58;27.45;;;24.55;;
56073;SDS011;41950;55.840;37.442;2022-08-21T07:23:31;26.38;;;23.48;;
56073;SDS011;41950;55.840;37.442;2022-08-21T07:25:59;26.20;;;23.13;;
56073;SDS011;41950;55.840;37.442;2022-08-21T07:28:26;27.05;;;24.10;;
56073;SDS011;41950;55.840;37.442;2022-08-21T07:30:53;27.02;;;24.20;;
56073;SDS011;41950;55.840;37.442;2022-08-21T07:33:21;27.17;;;23.08;;
56073;SDS011;41950;55.840;37.442;2022-08-21T07:35:50;26.63;;;23.80;;
56073;SDS011;41950;55.840;37.442;2022-08-21T07:38:16;26.88;;;23.10;;
56073;SDS011;41950;55.840;37.442;2022-08-21T07:40:44;24.13;;;21.52;;
56073;SDS011;41950;55.840;37.442;2022-08-21T07:43:11;27.60;;;21.65;;
56073;SDS011;41950;55.840;37.442;2022-08-21T07:45:37;25.42;;;22.83;;
56073;SDS011;41950;55.840;37.442;2022-08-21T07:48:05;25.60;;;21.98;;
56073;SDS011;41950;55.840;37.442;2022-08-21T07:50:31;24.75;;;22.15;;
56073;SDS011;41950;55.840;37.442;2022-08-21T07:52:56;25.35;;;22.50;;
56073;SDS011;41950;55.840;37.442;2022-08-21T07:55:22;25.75;;;20.88;;
56073;SDS011;41950;55.840;37.442;2022-08-21T07:57:48;27.95;;;22.65;;
56073;SDS011;41950;55.840;37.442;2022-08-21T08:00:28;25.70;;;22.15;;
56073;SDS011;41950;55.840;37.442;2022-08-21T08:02:54;24.90;;;22.30;;
56073;SDS011;41950;55.840;37.442;2022-08-21T08:05:22;26.00;;;23.27;;
56073;SDS011;41950;55.840;37.442;2022-08-21T08:07:53;23.02;;;20.42;;
56073;SDS011;41950;55.840;37.442;2022-08-21T08:10:19;24.30;;;21.50;;
56073;SDS011;41950;55.840;37.442;2022-08-21T08:12:46;22.98;;;20.58;;
56073;SDS011;41950;55.840;37.442;2022-08-21T08:15:14;24.58;;;20.73;;
56073;SDS011;41950;55.840;37.442;2022-08-21T08:17:42;24.35;;;21.77;;
56073;SDS011;41950;55.840;37.442;2022-08-21T08:20:09;26.70;;;22.45;;
56073;SDS011;41950;55.840;37.442;2022-08-21T08:25:21;23.27;;;20.77;;
56073;SDS011;41950;55.840;37.442;2022-08-21T08:27:49;25.55;;;21.80;;
56073;SDS011;41950;55.840;37.442;2022-08-21T08:30:15;21.58;;;19.27;;
56073;SDS011;41950;55.840;37.442;2022-08-21T08:32:43;25.02;;;19.70;;
56073;SDS011;41950;55.840;37.442;2022-08-21T08:35:09;21.70;;;18.58;;
56073;SDS011;41950;55.840;37.442;2022-08-21T08:37:37;21.65;;;18.52;;
56073;SDS011;41950;55.840;37.442;2022-08-21T08:40:05;19.75;;;17.63;;
56073;SDS011;41950;55.840;37.442;2022-08-21T08:42:36;19.92;;;16.65;;
56073;SDS011;41950;55.840;37.442;2022-08-21T08:45:06;19.58;;;16.40;;
56073;SDS011;41950;55.840;37.442;2022-08-21T08:47:34;19.70;;;17.52;;
56073;SDS011;41950;55.840;37.442;2022-08-21T08:52:48;18.05;;;16.00;;
56073;SDS011;41950;55.840;37.442;2022-08-21T08:55:23;21.83;;;16.58;;
56073;SDS011;41950;55.840;37.442;2022-08-21T08:57:53;23.58;;;16.23;;
56073;SDS011;41950;55.840;37.442;2022-08-21T09:00:22;17.13;;;15.10;;
56073;SDS011;41950;55.840;37.442;2022-08-21T09:02:50;21.10;;;16.48;;
56073;SDS011;41950;55.840;37.442;2022-08-21T09:05:25;18.73;;;15.68;;
56073;SDS011;41950;55.840;37.442;2022-08-21T09:11:23;17.70;;;15.82;;
56073;SDS011;41950;55.840;37.442;2022-08-21T09:13:55;21.35;;;16.52;;
56073;SDS011;41950;55.840;37.442;2022-08-21T09:19:32;18.92;;;17.00;;
56073;SDS011;41950;55.840;37.442;2022-08-21T09:22:19;20.48;;;15.50;;
56073;SDS011;41950;55.840;37.442;2022-08-21T09:28:25;19.15;;;15.32;;
56073;SDS011;41950;55.840;37.442;2022-08-21T09:30:54;17.92;;;14.25;;
56073;SDS011;41950;55.840;37.442;2022-08-21T09:34:36;18.77;;;12.93;;
56073;SDS011;41950;55.840;37.442;2022-08-21T09:37:16;16.15;;;12.85;;
56073;SDS011;41950;55.840;37.442;2022-08-21T09:39:45;15.60;;;12.20;;
56073;SDS011;41950;55.840;37.442;2022-08-21T09:42:21;15.25;;;12.13;;
56073;SDS011;41950;55.840;37.442;2022-08-21T09:45:04;13.85;;;11.98;;
56073;SDS011;41950;55.840;37.442;2022-08-21T09:48:07;16.08;;;12.30;;
56073;SDS011;41950;55.840;37.442;2022-08-21T09:50:36;14.07;;;12.23;;
56073;SDS011;41950;55.840;37.442;2022-08-21T09:53:02;16.38;;;12.85;;
56073;SDS011;41950;55.840;37.442;2022-08-21T09:55:47;15.63;;;12.55;;
56073;SDS011;41950;55.840;37.442;2022-08-21T09:58:40;19.98;;;13.27;;
56073;SDS011;41950;55.840;37.442;2022-08-21T10:01:12;16.67;;;12.52;;
56073;SDS011;41950;55.840;37.442;2022-08-21T10:03:43;19.13;;;12.32;;
56073;SDS011;41950;55.840;37.442;2022-08-21T10:06:25;15.20;;;12.15;;
56073;SDS011;41950;55.840;37.442;2022-08-21T10:09:05;17.35;;;12.43;;
56073;SDS011;41950;55.840;37.442;2022-08-21T10:11:55;15.13;;;12.18;;
56073;SDS011;41950;55.840;37.442;2022-08-21T10:17:35;14.45;;;10.55;;
56073;SDS011;41950;55.840;37.442;2022-08-21T10:20:18;15.55;;;10.27;;
56073;SDS011;41950;55.840;37.442;2022-08-21T10:36:46;17.42;;;11.43;;
56073;SDS011;41950;55.840;37.442;2022-08-21T10:39:26;15.18;;;10.70;;
56073;SDS011;41950;55.840;37.442;2022-08-21T10:42:16;12.98;;;10.57;;
56073;SDS011;41950;55.840;37.442;2022-08-21T10:45:00;12.73;;;10.57;;
56073;SDS011;41950;55.840;37.442;2022-08-21T10:55:33;13.70;;;10.45;;
56073;SDS011;41950;55.840;37.442;2022-08-21T10:58:37;17.35;;;10.05;;
56073;SDS011;41950;55.840;37.442;2022-08-21T11:02:08;15.85;;;9.45;;
56073;SDS011;41950;55.840;37.442;2022-08-21T11:04:32;12.18;;;8.73;;
56073;SDS011;41950;55.840;37.442;2022-08-21T11:07:18;12.73;;;8.98;;
56073;SDS011;41950;55.840;37.442;2022-08-21T11:09:48;13.25;;;7.93;;
56073;SDS011;41950;55.840;37.442;2022-08-21T11:15:22;13.68;;;7.60;;
56073;SDS011;41950;55.840;37.442;2022-08-21T11:23:15;11.90;;;5.93;;
56073;SDS011;41950;55.840;37.442;2022-08-21T11:25:56;15.15;;;5.93;;
56073;SDS011;41950;55.840;37.442;2022-08-21T11:28:58;13.27;;;6.25;;
56073;SDS011;41950;55.840;37.442;2022-08-21T11:34:28;12.63;;;5.70;;
56073;SDS011;41950;55.840;37.442;2022-08-21T11:39:55;9.90;;;5.03;;
56073;SDS011;41950;55.840;37.442;2022-08-21T11:42:44;12.15;;;5.05;;
56073;SDS011;41950;55.840;37.442;2022-08-21T11:45:37;11.43;;;5.00;;
56073;SDS011;41950;55.840;37.442;2022-08-21T11:51:05;9.88;;;5.60;;
56073;SDS011;41950;55.840;37.442;2022-08-21T11:56:33;12.43;;;6.20;;
56073;SDS011;41950;55.840;37.442;2022-08-21T11:59:16;9.38;;;5.90;;
56073;SDS011;41950;55.840;37.442;2022-08-21T12:01:49;11.48;;;7.15;;
56073;SDS011;41950;55.840;37.442;2022-08-21T12:04:32;11.63;;;8.05;;
56073;SDS011;41950;55.840;37.442;2022-08-21T12:07:11;14.60;;;9.43;;
56073;SDS011;41950;55.840;37.442;2022-08-21T12:09:50;14.88;;;9.88;;
56073;SDS011;41950;55.840;37.442;2022-08-21T12:12:29;13.60;;;10.15;;
56073;SDS011;41950;55.840;37.442;2022-08-21T12:21:16;15.27;;;10.10;;
56073;SDS011;41950;55.840;37.442;2022-08-21T12:24:00;13.32;;;8.57;;
56073;SDS011;41950;55.840;37.442;2022-08-21T12:26:53;12.00;;;8.45;;
56073;SDS011;41950;55.840;37.442;2022-08-21T12:29:36;12.10;;;8.40;;
56073;SDS011;41950;55.840;37.442;2022-08-21T12:37:11;10.93;;;7.50;;
56073;SDS011;41950;55.840;37.442;2022-08-21T12:39:46;12.98;;;8.77;;
56073;SDS011;41950;55.840;37.442;2022-08-21T12:45:00;10.48;;;6.55;;
56073;SDS011;41950;55.840;37.442;2022-08-21T12:47:34;14.00;;;7.63;;
56073;SDS011;41950;55.840;37.442;2022-08-21T12:50:11;11.98;;;7.47;;
56073;SDS011;41950;55.840;37.442;2022-08-21T12:52:45;9.32;;;7.32;;
56073;SDS011;41950;55.840;37.442;2022-08-21T12:55:26;9.98;;;7.45;;
56073;SDS011;41950;55.840;37.442;2022-08-21T12:57:54;14.35;;;6.88;;
56073;SDS011;41950;55.840;37.442;2022-08-21T13:00:21;11.75;;;6.35;;
56073;SDS011;41950;55.840;37.442;2022-08-21T13:02:50;13.77;;;6.45;;
56073;SDS011;41950;55.840;37.442;2022-08-21T13:05:29;12.85;;;6.25;;
56073;SDS011;41950;55.840;37.442;2022-08-21T13:07:58;12.73;;;7.37;;
56073;SDS011;41950;55.840;37.442;2022-08-21T13:10:29;13.40;;;7.45;;
56073;SDS011;41950;55.840;37.442;2022-08-21T13:12:57;13.48;;;6.35;;
56073;SDS011;41950;55.840;37.442;2022-08-21T13:15:33;11.20;;;6.60;;
56073;SDS011;41950;55.840;37.442;2022-08-21T13:18:04;12.63;;;7.93;;
56073;SDS011;41950;55.840;37.442;2022-08-21T13:20:32;9.45;;;7.57;;
56073;SDS011;41950;55.840;37.442;2022-08-21T13:23:01;11.93;;;7.22;;
56073;SDS011;41950;55.840;37.442;2022-08-21T13:25:29;12.10;;;6.80;;
56073;SDS011;41950;55.840;37.442;2022-08-21T13:28:06;11.60;;;5.80;;
56073;SDS011;41950;55.840;37.442;2022-08-21T13:30:34;10.00;;;6.15;;
56073;SDS011;41950;55.840;37.442;2022-08-21T13:33:26;9.38;;;5.53;;
56073;SDS011;41950;55.840;37.442;2022-08-21T13:38:26;12.27;;;5.70;;
56073;SDS011;41950;55.840;37.442;2022-08-21T13:40:56;11.55;;;6.50;;
56073;SDS011;41950;55.840;37.442;2022-08-21T13:43:46;11.85;;;6.20;;
56073;SDS011;41950;55.840;37.442;2022-08-21T13:46:21;9.40;;;6.60;;
56073;SDS011;41950;55.840;37.442;2022-08-21T13:48:49;9.95;;;6.43;;
56073;SDS011;41950;55.840;37.442;2022-08-21T13:51:15;15.10;;;6.82;;
56073;SDS011;41950;55.840;37.442;2022-08-21T13:56:06;13.25;;;7.20;;
56073;SDS011;41950;55.840;37.442;2022-08-21T13:58:53;10.68;;;6.47;;
56073;SDS011;41950;55.840;37.442;2022-08-21T14:01:28;13.93;;;6.75;;
56073;SDS011;41950;55.840;37.442;2022-08-21T14:04:31;13.68;;;7.25;;
56073;SDS011;41950;55.840;37.442;2022-08-21T14:06:51;10.60;;;6.43;;
56073;SDS011;41950;55.840;37.442;2022-08-21T14:09:31;13.82;;;6.95;;
56073;SDS011;41950;55.840;37.442;2022-08-21T14:12:02;11.40;;;6.43;;
56073;SDS011;41950;55.840;37.442;2022-08-21T14:14:48;11.13;;;6.78;;
56073;SDS011;41950;55.840;37.442;2022-08-21T14:17:14;9.38;;;6.82;;
56073;SDS011;41950;55.840;37.442;2022-08-21T14:19:53;13.88;;;6.82;;
56073;SDS011;41950;55.840;37.442;2022-08-21T14:23:01;12.02;;;8.05;;
56073;SDS011;41950;55.840;37.442;2022-08-21T14:25:11;15.23;;;8.50;;
56073;SDS011;41950;55.840;37.442;2022-08-21T14:27:48;14.00;;;7.95;;
56073;SDS011;41950;55.840;37.442;2022-08-21T14:30:31;11.73;;;8.07;;
56073;SDS011;41950;55.840;37.442;2022-08-21T14:32:59;9.10;;;6.28;;
56073;SDS011;41950;55.840;37.442;2022-08-21T14:35:26;11.23;;;5.43;;
56073;SDS011;41950;55.840;37.442;2022-08-21T14:37:52;9.68;;;5.68;;
56073;SDS011;41950;55.840;37.442;2022-08-21T14:40:19;10.93;;;4.80;;
56073;SDS011;41950;55.840;37.442;2022-08-21T14:42:47;9.25;;;4.38;;
56073;SDS011;41950;55.840;37.442;2022-08-21T14:45:15;10.48;;;5.03;;
56073;SDS011;41950;55.840;37.442;2022-08-21T14:47:44;8.77;;;4.88;;
56073;SDS011;41950;55.840;37.442;2022-08-21T14:50:10;8.80;;;4.50;;
56073;SDS011;41950;55.840;37.442;2022-08-21T14:52:37;7.32;;;4.80;;
56073;SDS011;41950;55.840;37.442;2022-08-21T14:55:04;6.15;;;4.20;;
56073;SDS011;41950;55.840;37.442;2022-08-21T14:57:32;10.15;;;4.55;;
56073;SDS011;41950;55.840;37.442;2022-08-21T15:00:03;8.70;;;4.32;;
56073;SDS011;41950;55.840;37.442;2022-08-21T15:02:30;9.38;;;4.65;;
56073;SDS011;41950;55.840;37.442;2022-08-21T15:04:56;8.43;;;4.18;;
56073;SDS011;41950;55.840;37.442;2022-08-21T15:07:22;7.07;;;4.38;;
56073;SDS011;41950;55.840;37.442;2022-08-21T15:09:48;9.90;;;4.20;;
56073;SDS011;41950;55.840;37.442;2022-08-21T15:12:13;7.10;;;4.50;;
56073;SDS011;41950;55.840;37.442;2022-08-21T15:14:40;7.72;;;3.55;;
56073;SDS011;41950;55.840;37.442;2022-08-21T15:17:06;6.13;;;2.50;;
56073;SDS011;41950;55.840;37.442;2022-08-21T15:19:33;7.18;;;2.40;;
56073;SDS011;41950;55.840;37.442;2022-08-21T15:21:59;5.70;;;2.70;;
56073;SDS011;41950;55.840;37.442;2022-08-21T15:24:25;8.32;;;3.20;;
56073;SDS011;41950;55.840;37.442;2022-08-21T15:26:51;5.70;;;2.42;;
56073;SDS011;41950;55.840;37.442;2022-08-21T15:29:19;7.35;;;2.63;;
56073;SDS011;41950;55.840;37.442;2022-08-21T15:31:52;7.40;;;2.65;;
56073;SDS011;41950;55.840;37.442;2022-08-21T15:34:24;5.65;;;2.53;;
56073;SDS011;41950;55.840;37.442;2022-08-21T15:36:52;9.00;;;2.15;;
56073;SDS011;41950;55.840;37.442;2022-08-21T15:39:18;6.00;;;2.08;;
56073;SDS011;41950;55.840;37.442;2022-08-21T15:41:44;7.53;;;2.05;;
56073;SDS011;41950;55.840;37.442;2022-08-21T15:44:11;6.65;;;2.03;;
56073;SDS011;41950;55.840;37.442;2022-08-21T15:46:38;7.30;;;1.60;;
56073;SDS011;41950;55.840;37.442;2022-08-21T15:49:05;5.50;;;2.53;;
56073;SDS011;41950;55.840;37.442;2022-08-21T15:51:31;5.68;;;2.35;;
56073;SDS011;41950;55.840;37.442;2022-08-21T15:53:58;9.13;;;2.60;;